createdAt,value
2018-02-25T00:00:31.187Z,3.70
2018-02-25T00:03:02.663Z,2.47
2018-02-25T00:05:33.284Z,2.85
2018-02-25T00:08:05.022Z,3.15
2018-02-25T00:10:36.211Z,2.97
2018-02-25T00:13:06.763Z,2.87
2018-02-25T00:15:37.256Z,4.12
2018-02-25T00:18:08.377Z,3.85
2018-02-25T00:20:39.752Z,4.20
2018-02-25T00:23:10.908Z,3.87
2018-02-25T00:25:42.050Z,2.97
2018-02-25T00:28:13.611Z,4.37
2018-02-25T00:30:44.501Z,8.75
2018-02-25T00:33:15.001Z,4.50
2018-02-25T00:35:47.308Z,5.65
2018-02-25T00:38:17.915Z,3.50
2018-02-25T00:40:48.268Z,2.70
2018-02-25T00:43:19.407Z,3.90
2018-02-25T00:45:50.966Z,7.20
2018-02-25T00:48:21.922Z,3.65
2018-02-25T00:50:53.783Z,3.97
2018-02-25T00:53:25.824Z,4.10
2018-02-25T00:56:01.263Z,4.47
2018-02-25T00:58:43.549Z,4.47
2018-02-25T01:01:23.500Z,3.70
2018-02-25T01:04:03.193Z,2.58
2018-02-25T01:06:40.693Z,3.25
2018-02-25T01:09:18.889Z,2.30
2018-02-25T01:11:57.338Z,2.03
2018-02-25T01:14:36.682Z,2.92
2018-02-25T01:17:15.322Z,2.90
2018-02-25T01:19:53.727Z,3.80
2018-02-25T01:22:32.027Z,2.83
2018-02-25T01:25:10.414Z,3.50
2018-02-25T01:27:49.766Z,2.40
2018-02-25T01:30:28.173Z,6.18
2018-02-25T01:33:06.586Z,4.55
2018-02-25T01:35:44.996Z,6.32
2018-02-25T01:38:23.622Z,8.05
2018-02-25T01:41:02.142Z,5.68
2018-02-25T01:43:40.563Z,7.03
2018-02-25T01:46:18.985Z,11.52
2018-02-25T01:48:58.443Z,16.35
2018-02-25T01:51:36.751Z,17.90
2018-02-25T01:54:15.061Z,18.02
2018-02-25T01:56:53.718Z,15.93
2018-02-25T01:59:32.160Z,12.37
2018-02-25T02:02:11.538Z,11.40
2018-02-25T02:04:51.154Z,10.35
2018-02-25T02:07:29.773Z,14.90
2018-02-25T02:10:08.185Z,8.57
2018-02-25T02:12:48.205Z,9.05
2018-02-25T02:15:27.340Z,8.38
2018-02-25T02:18:07.792Z,7.43
2018-02-25T02:20:47.266Z,9.48
2018-02-25T02:23:28.732Z,6.85
2018-02-25T02:26:10.008Z,8.82
2018-02-25T02:28:50.714Z,7.87
2018-02-25T02:31:29.944Z,6.35
2018-02-25T02:34:11.284Z,5.15
2018-02-25T02:36:54.103Z,5.60
2018-02-25T02:39:36.384Z,6.70
2018-02-25T02:42:15.968Z,5.35
2018-02-25T02:44:55.210Z,6.72
2018-02-25T02:47:33.665Z,6.47
2018-02-25T02:50:13.109Z,9.57
2018-02-25T02:52:52.676Z,7.05
2018-02-25T02:55:33.211Z,6.47
2018-02-25T02:58:12.646Z,6.85
2018-02-25T03:00:52.009Z,5.97
2018-02-25T03:03:30.301Z,7.50
2018-02-25T03:06:08.623Z,6.15
2018-02-25T03:08:48.032Z,7.07
2018-02-25T03:11:28.623Z,17.65
2018-02-25T03:14:09.079Z,14.40
2018-02-25T03:16:49.628Z,11.95
2018-02-25T03:19:28.113Z,6.10
2018-02-25T03:22:06.610Z,6.72
2018-02-25T03:24:47.117Z,6.43
2018-02-25T03:27:26.435Z,6.53
2018-02-25T03:30:04.834Z,5.62
2018-02-25T03:32:44.158Z,5.30
2018-02-25T03:35:22.767Z,5.53
2018-02-25T03:38:01.671Z,6.20
2018-02-25T03:40:40.458Z,5.47
2018-02-25T03:43:18.776Z,6.00
2018-02-25T03:45:59.308Z,5.82
2018-02-25T03:48:38.949Z,6.85
2018-02-25T03:51:17.347Z,6.55
2018-02-25T03:53:58.306Z,6.62
2018-02-25T03:56:38.321Z,9.57
2018-02-25T03:59:16.517Z,7.53
2018-02-25T04:01:55.012Z,6.53
2018-02-25T04:04:35.485Z,7.60
2018-02-25T04:07:13.993Z,7.00
2018-02-25T04:09:52.377Z,6.07
2018-02-25T04:12:32.744Z,7.22
2018-02-25T04:15:13.137Z,12.30
2018-02-25T04:17:52.633Z,11.55
2018-02-25T04:20:30.938Z,10.40
2018-02-25T04:23:09.372Z,9.50
2018-02-25T04:25:46.868Z,8.35
2018-02-25T04:28:25.952Z,6.85
2018-02-25T04:31:04.824Z,8.05
2018-02-25T04:33:42.267Z,7.15
2018-02-25T04:36:20.653Z,7.35
2018-02-25T04:38:58.997Z,7.05
2018-02-25T04:41:39.420Z,7.05
2018-02-25T04:44:19.730Z,6.70
2018-02-25T04:49:44.464Z,10.02
2018-02-25T04:52:23.387Z,9.27
2018-02-25T04:55:03.954Z,11.70
2018-02-25T04:57:42.916Z,7.37
2018-02-25T05:00:21.336Z,7.60
2018-02-25T05:03:01.903Z,13.05
2018-02-25T05:05:41.273Z,20.65
2018-02-25T05:08:19.557Z,17.62
2018-02-25T05:10:59.025Z,15.60
2018-02-25T05:13:37.376Z,10.00
2018-02-25T05:16:15.853Z,8.00
2018-02-25T05:18:52.761Z,7.90
2018-02-25T05:21:31.532Z,8.40
2018-02-25T05:24:09.971Z,6.60
2018-02-25T05:26:48.410Z,6.80
2018-02-25T05:29:26.554Z,8.55
2018-02-25T05:32:05.489Z,6.43
2018-02-25T05:34:43.778Z,8.20
2018-02-25T05:37:22.314Z,8.30
2018-02-25T05:40:01.670Z,9.27
2018-02-25T05:42:40.124Z,6.95
2018-02-25T05:45:18.593Z,7.80
2018-02-25T05:47:57.206Z,6.93
2018-02-25T05:50:35.634Z,7.05
2018-02-25T05:53:14.210Z,8.90
2018-02-25T05:55:52.310Z,10.63
2018-02-25T05:58:34.078Z,15.45
2018-02-25T06:01:13.561Z,8.80
2018-02-25T06:03:51.928Z,7.50
2018-02-25T06:06:30.407Z,9.15
2018-02-25T06:09:08.860Z,8.13
2018-02-25T06:11:47.218Z,8.45
2018-02-25T06:14:26.657Z,8.93
2018-02-25T06:17:05.996Z,8.73
2018-02-25T06:19:44.512Z,6.90
2018-02-25T06:22:23.070Z,7.28
2018-02-25T06:25:01.195Z,9.15
2018-02-25T06:27:41.600Z,6.85
2018-02-25T06:30:21.066Z,6.07
2018-02-25T06:32:59.476Z,7.47
2018-02-25T06:35:37.941Z,6.37
2018-02-25T06:38:16.401Z,6.30
2018-02-25T06:40:54.814Z,6.35
2018-02-25T06:43:33.335Z,6.50
2018-02-25T06:46:12.770Z,6.97
2018-02-25T06:48:51.355Z,6.57
2018-02-25T06:51:29.806Z,7.43
2018-02-25T06:54:08.143Z,8.93
2018-02-25T06:56:46.572Z,9.90
2018-02-25T06:59:26.216Z,8.40
2018-02-25T07:02:04.523Z,6.87
2018-02-25T07:04:42.825Z,9.68
2018-02-25T07:07:22.048Z,11.95
2018-02-25T07:10:00.506Z,12.05
2018-02-25T07:12:38.950Z,9.10
2018-02-25T07:15:17.361Z,8.80
2018-02-25T07:17:56.925Z,7.97
2018-02-25T07:20:36.557Z,7.12
2018-02-25T07:23:16.156Z,10.23
2018-02-25T07:25:54.663Z,7.87
2018-02-25T07:28:33.443Z,7.90
2018-02-25T07:31:11.818Z,7.28
2018-02-25T07:33:52.450Z,6.20
2018-02-25T07:36:31.170Z,6.00
2018-02-25T07:39:09.705Z,7.00
2018-02-25T07:41:48.262Z,7.00
2018-02-25T07:44:27.931Z,7.40
2018-02-25T07:47:06.332Z,7.20
2018-02-25T07:49:45.548Z,6.57
2018-02-25T07:52:24.364Z,8.10
2018-02-25T07:55:02.612Z,6.12
2018-02-25T07:57:41.021Z,5.97
2018-02-25T08:00:19.358Z,6.30
2018-02-25T08:02:59.627Z,5.80
2018-02-25T08:05:38.253Z,5.07
2018-02-25T08:08:17.651Z,7.35
2018-02-25T08:10:56.022Z,6.20
2018-02-25T08:13:34.514Z,6.15
2018-02-25T08:16:12.897Z,6.30
2018-02-25T08:18:51.536Z,6.95
2018-02-25T08:21:33.114Z,7.03
2018-02-25T08:24:13.431Z,6.80
2018-02-25T08:26:53.938Z,7.07
2018-02-25T08:29:35.416Z,7.37
2018-02-25T08:32:15.976Z,6.72
2018-02-25T08:34:55.256Z,8.25
2018-02-25T08:37:35.574Z,6.57
2018-02-25T08:40:17.062Z,9.07
2018-02-25T08:42:56.522Z,7.35
2018-02-25T08:45:34.847Z,6.30
2018-02-25T08:48:14.421Z,6.75
2018-02-25T08:50:53.977Z,6.78
2018-02-25T08:53:33.245Z,6.82
2018-02-25T08:56:12.712Z,6.80
2018-02-25T08:58:54.102Z,6.18
2018-02-25T09:01:32.759Z,7.55
2018-02-25T09:04:13.321Z,6.40
2018-02-25T09:06:52.885Z,7.03
2018-02-25T09:09:31.301Z,7.60
2018-02-25T09:12:09.802Z,6.68
2018-02-25T09:14:48.461Z,5.28
2018-02-25T09:17:28.964Z,6.30
2018-02-25T09:20:08.450Z,5.70
2018-02-25T09:22:47.921Z,5.55
2018-02-25T09:25:26.396Z,5.90
2018-02-25T09:28:04.772Z,5.50
2018-02-25T09:30:43.101Z,6.03
2018-02-25T09:33:22.576Z,6.07
2018-02-25T09:36:00.908Z,7.28
2018-02-25T09:38:44.422Z,5.37
2018-02-25T09:41:23.013Z,5.90
2018-02-25T09:44:01.423Z,5.15
2018-02-25T09:46:39.684Z,7.10
2018-02-25T09:49:18.108Z,5.90
2018-02-25T09:51:56.633Z,6.97
2018-02-25T09:54:35.290Z,5.55
2018-02-25T09:57:17.739Z,5.90
2018-02-25T09:59:59.180Z,5.85
2018-02-25T10:02:37.552Z,6.60
2018-02-25T10:05:17.028Z,5.40
2018-02-25T10:07:57.478Z,5.20
2018-02-25T10:10:34.844Z,5.15
2018-02-25T10:13:13.369Z,5.43
2018-02-25T10:15:51.696Z,5.57
2018-02-25T10:18:31.050Z,5.97
2018-02-25T10:21:09.522Z,5.65
2018-02-25T10:23:48.988Z,5.93
2018-02-25T10:26:28.301Z,4.95
2018-02-25T10:29:06.791Z,4.40
2018-02-25T10:31:46.221Z,4.30
2018-02-25T10:34:23.750Z,4.90
2018-02-25T10:37:02.251Z,4.90
2018-02-25T10:39:40.839Z,5.18
2018-02-25T10:42:20.891Z,5.35
2018-02-25T10:45:00.887Z,4.05
2018-02-25T10:47:39.485Z,5.22
2018-02-25T10:50:17.954Z,5.15
2018-02-25T10:52:56.613Z,4.93
2018-02-25T10:55:36.959Z,6.25
2018-02-25T10:58:15.424Z,5.82
2018-02-25T11:01:01.070Z,4.80
2018-02-25T11:03:39.398Z,5.28
2018-02-25T11:06:18.795Z,4.97
2018-02-25T11:08:57.334Z,6.30
2018-02-25T11:11:35.637Z,4.35
2018-02-25T11:14:13.908Z,5.40
2018-02-25T11:16:52.689Z,6.12
2018-02-25T11:19:33.281Z,5.37
2018-02-25T11:22:11.758Z,6.62
2018-02-25T11:24:52.750Z,5.50
2018-02-25T11:27:31.795Z,5.68
2018-02-25T11:30:10.180Z,4.82
2018-02-25T11:32:48.571Z,6.32
2018-02-25T11:35:25.879Z,6.30
2018-02-25T11:38:06.350Z,4.97
2018-02-25T11:40:44.768Z,5.03
2018-02-25T11:43:26.266Z,5.65
2018-02-25T11:46:05.426Z,6.35
2018-02-25T11:48:44.718Z,5.43
2018-02-25T11:51:21.972Z,6.40
2018-02-25T11:54:00.231Z,6.20
2018-02-25T11:56:39.570Z,7.45
2018-02-25T11:59:18.916Z,6.53
2018-02-25T12:01:58.341Z,9.05
2018-02-25T12:04:37.839Z,6.90
2018-02-25T12:07:16.113Z,6.78
2018-02-25T12:09:54.481Z,5.55
2018-02-25T12:12:33.006Z,6.50
2018-02-25T12:15:11.364Z,5.78
2018-02-25T12:17:52.270Z,5.70
2018-02-25T12:20:31.258Z,5.22
2018-02-25T12:23:09.735Z,5.95
2018-02-25T12:25:47.021Z,6.95
2018-02-25T12:28:25.439Z,6.05
2018-02-25T12:31:05.771Z,6.57
2018-02-25T12:33:46.177Z,7.87
2018-02-25T12:36:25.683Z,5.10
2018-02-25T12:39:07.171Z,6.10
2018-02-25T12:41:45.550Z,5.55
2018-02-25T12:44:26.990Z,5.15
2018-02-25T12:47:05.531Z,7.85
2018-02-25T12:49:45.024Z,5.95
2018-02-25T12:52:23.405Z,6.40
2018-02-25T12:55:03.776Z,7.93
2018-02-25T12:57:41.266Z,5.65
2018-02-25T13:00:21.877Z,5.43
2018-02-25T13:03:00.217Z,6.35
2018-02-25T13:05:38.766Z,5.70
2018-02-25T13:08:17.287Z,6.18
2018-02-25T13:10:55.547Z,4.82
2018-02-25T13:13:34.215Z,6.10
2018-02-25T13:16:14.677Z,6.68
2018-02-25T13:18:53.042Z,7.80
2018-02-25T13:21:33.472Z,6.28
2018-02-25T13:24:11.902Z,4.80
2018-02-25T13:26:53.160Z,6.37
2018-02-25T13:29:33.377Z,5.40
2018-02-25T13:32:13.947Z,5.65
2018-02-25T13:34:52.387Z,6.03
2018-02-25T13:37:30.803Z,4.35
2018-02-25T13:40:09.444Z,4.82
2018-02-25T13:42:47.848Z,4.18
2018-02-25T13:45:27.063Z,5.15
2018-02-25T13:48:05.738Z,4.68
2018-02-25T13:50:45.226Z,5.10
2018-02-25T13:53:23.639Z,4.25
2018-02-25T13:56:02.141Z,5.45
2018-02-25T13:58:40.557Z,4.68
2018-02-25T14:01:19.132Z,4.50
2018-02-25T14:03:57.620Z,4.45
2018-02-25T14:06:36.212Z,4.05
2018-02-25T14:09:15.690Z,4.70
2018-02-25T14:11:56.030Z,4.32
2018-02-25T14:14:33.435Z,4.93
2018-02-25T14:17:11.794Z,4.62
2018-02-25T14:19:50.140Z,3.92
2018-02-25T14:22:28.524Z,4.40
2018-02-25T14:25:06.916Z,4.30
2018-02-25T14:27:46.511Z,5.00
2018-02-25T14:30:25.060Z,3.72
2018-02-25T14:33:05.402Z,4.40
2018-02-25T14:35:45.095Z,4.10
2018-02-25T14:38:23.570Z,3.83
2018-02-25T14:41:02.901Z,4.68
2018-02-25T14:43:41.512Z,3.50
2018-02-25T14:46:20.003Z,4.40
2018-02-25T14:48:58.309Z,3.55
2018-02-25T14:51:36.860Z,4.43
2018-02-25T14:54:15.326Z,4.18
2018-02-25T14:56:55.864Z,3.10
2018-02-25T14:59:34.372Z,3.37
2018-02-25T15:02:14.985Z,4.37
2018-02-25T15:04:53.521Z,4.15
2018-02-25T15:07:31.951Z,3.50
2018-02-25T15:10:11.284Z,3.05
2018-02-25T15:12:50.850Z,4.03
2018-02-25T15:15:29.348Z,4.87
2018-02-25T15:18:10.218Z,3.87
2018-02-25T15:20:48.234Z,4.35
2018-02-25T15:23:27.847Z,3.20
2018-02-25T15:26:06.345Z,2.80
2018-02-25T15:28:44.600Z,4.72
2018-02-25T15:31:26.859Z,2.47
2018-02-25T15:34:06.618Z,3.00
2018-02-25T15:36:47.120Z,3.50
2018-02-25T15:39:25.545Z,2.55
2018-02-25T15:42:03.903Z,3.95
2018-02-25T15:44:42.552Z,3.10
2018-02-25T15:47:21.036Z,3.03
2018-02-25T15:49:59.335Z,3.30
2018-02-25T15:52:39.795Z,2.70
2018-02-25T15:55:18.323Z,2.60
2018-02-25T15:57:56.975Z,2.10
2018-02-25T16:00:37.730Z,2.60
2018-02-25T16:03:15.794Z,4.45
2018-02-25T16:05:54.287Z,5.55
2018-02-25T16:08:32.859Z,6.95
2018-02-25T16:11:10.291Z,3.67
2018-02-25T16:13:49.284Z,4.90
2018-02-25T16:16:27.462Z,2.87
2018-02-25T16:19:07.915Z,3.65
2018-02-25T16:21:47.479Z,3.10
2018-02-25T16:24:25.982Z,3.60
2018-02-25T16:27:04.267Z,4.20
2018-02-25T16:29:43.528Z,3.22
2018-02-25T16:32:23.075Z,3.20
2018-02-25T16:35:03.568Z,4.65
2018-02-25T16:37:41.995Z,2.80
2018-02-25T16:40:22.687Z,2.78
2018-02-25T16:43:01.070Z,2.47
2018-02-25T16:45:39.511Z,2.75
2018-02-25T16:48:17.955Z,2.75
2018-02-25T16:50:56.387Z,2.50
2018-02-25T16:53:34.744Z,3.15
2018-02-25T16:56:12.120Z,2.75
2018-02-25T16:58:51.652Z,2.62
2018-02-25T17:01:30.092Z,2.60
2018-02-25T17:04:08.319Z,2.70
2018-02-25T17:06:47.843Z,2.85
2018-02-25T17:09:28.061Z,2.92
2018-02-25T17:12:10.020Z,2.17
2018-02-25T17:14:49.935Z,2.25
2018-02-25T17:17:27.350Z,2.42
2018-02-25T17:20:07.014Z,2.08
2018-02-25T17:22:45.418Z,2.53
2018-02-25T17:25:26.038Z,3.10
2018-02-25T17:28:05.488Z,2.10
2018-02-25T17:30:43.906Z,2.55
2018-02-25T17:33:22.283Z,2.90
2018-02-25T17:36:00.706Z,3.35
2018-02-25T17:38:38.268Z,2.70
2018-02-25T17:41:19.848Z,4.35
2018-02-25T17:43:58.155Z,4.55
2018-02-25T17:46:37.627Z,3.53
2018-02-25T17:49:17.075Z,3.70
2018-02-25T17:51:55.435Z,3.10
2018-02-25T17:54:34.880Z,2.80
2018-02-25T17:57:12.224Z,3.62
2018-02-25T17:59:51.148Z,4.12
2018-02-25T18:02:29.958Z,4.57
2018-02-25T18:05:08.450Z,4.50
2018-02-25T18:07:47.554Z,3.67
2018-02-25T18:10:26.398Z,3.65
2018-02-25T18:13:04.863Z,3.10
2018-02-25T18:15:44.542Z,2.25
2018-02-25T18:18:23.047Z,2.37
2018-02-25T18:21:01.372Z,1.90
2018-02-25T18:23:41.620Z,2.60
2018-02-25T18:26:20.076Z,1.70
2018-02-25T18:28:58.634Z,1.87
2018-02-25T18:31:38.942Z,1.70
2018-02-25T18:34:18.038Z,1.42
2018-02-25T18:36:57.143Z,1.60
2018-02-25T18:39:35.864Z,2.03
2018-02-25T18:42:14.926Z,1.70
2018-02-25T18:44:53.803Z,2.53
2018-02-25T18:47:32.333Z,2.10
2018-02-25T18:50:14.666Z,3.22
2018-02-25T18:52:53.018Z,2.08
2018-02-25T18:55:31.521Z,2.97
2018-02-25T18:58:12.088Z,2.50
2018-02-25T19:00:52.917Z,2.60
2018-02-25T19:03:32.943Z,2.20
2018-02-25T19:06:10.367Z,2.20
2018-02-25T19:08:48.699Z,2.12
2018-02-25T19:11:27.274Z,2.53
2018-02-25T19:14:05.737Z,2.60
2018-02-25T19:16:43.965Z,2.42
2018-02-25T19:19:23.565Z,2.80
2018-02-25T19:22:02.077Z,1.95
2018-02-25T19:24:40.599Z,2.40
2018-02-25T19:27:18.947Z,5.05
2018-02-25T19:29:57.299Z,6.00
2018-02-25T19:32:36.793Z,4.60
2018-02-25T19:35:17.336Z,5.68
2018-02-25T19:38:01.888Z,3.40
2018-02-25T19:40:46.122Z,5.60
2018-02-25T19:43:25.449Z,2.30
2018-02-25T19:46:03.897Z,5.75
2018-02-25T19:48:41.383Z,4.05
2018-02-25T19:51:20.837Z,2.60
2018-02-25T19:53:59.207Z,2.12
2018-02-25T19:56:38.724Z,2.53
2018-02-25T19:59:19.292Z,2.20
2018-02-25T20:01:57.679Z,1.60
2018-02-25T20:04:36.390Z,1.40
2018-02-25T20:07:16.862Z,1.20
2018-02-25T20:09:56.154Z,1.35
2018-02-25T20:12:34.614Z,2.00
2018-02-25T20:15:13.215Z,1.42
2018-02-25T20:17:54.747Z,1.60
2018-02-25T20:20:35.225Z,1.80
2018-02-25T20:23:13.622Z,1.60
2018-02-25T20:25:51.887Z,1.73
2018-02-25T20:28:30.548Z,1.20
2018-02-25T20:31:08.963Z,2.10
2018-02-25T20:33:48.410Z,1.90
2018-02-25T20:36:26.876Z,1.65
2018-02-25T20:39:06.375Z,1.25
2018-02-25T20:41:44.997Z,1.05
2018-02-25T20:44:23.493Z,1.12
2018-02-25T20:47:02.882Z,0.90
2018-02-25T20:49:42.297Z,1.75
2018-02-25T20:52:20.791Z,1.60
2018-02-25T20:54:59.197Z,1.50
2018-02-25T20:57:37.669Z,1.62
2018-02-25T21:00:17.247Z,1.50
2018-02-25T21:02:55.570Z,1.52
2018-02-25T21:05:34.014Z,1.80
2018-02-25T21:08:13.166Z,0.82
2018-02-25T21:10:54.198Z,1.35
2018-02-25T21:13:32.678Z,1.02
2018-02-25T21:16:11.036Z,1.27
2018-02-25T21:18:49.744Z,1.00
2018-02-25T21:21:30.059Z,1.20
2018-02-25T21:24:08.498Z,1.40
2018-02-25T21:26:46.900Z,0.90
2018-02-25T21:29:26.236Z,0.70
2018-02-25T21:32:04.738Z,1.02
2018-02-25T21:34:43.403Z,1.33
2018-02-25T21:37:21.924Z,1.10
2018-02-25T21:40:00.348Z,1.10
2018-02-25T21:42:39.763Z,0.77
2018-02-25T21:45:17.411Z,0.90
2018-02-25T21:47:57.868Z,0.90
2018-02-25T21:50:36.362Z,1.55
2018-02-25T21:53:18.083Z,1.67
2018-02-25T21:56:02.940Z,3.30
2018-02-25T21:58:47.223Z,0.98
2018-02-25T22:01:32.840Z,0.90
2018-02-25T22:04:12.294Z,3.00
2018-02-25T22:06:50.191Z,1.12
2018-02-25T22:09:29.851Z,2.00
2018-02-25T22:12:10.409Z,2.12
2018-02-25T22:14:48.968Z,2.15
2018-02-25T22:17:27.605Z,2.37
2018-02-25T22:20:06.750Z,1.83
2018-02-25T22:22:47.139Z,2.35
2018-02-25T22:25:25.432Z,2.00
2018-02-25T22:28:03.906Z,2.12
2018-02-25T22:30:43.376Z,2.00
2018-02-25T22:33:22.232Z,2.30
2018-02-25T22:36:01.515Z,2.87
2018-02-25T22:38:44.946Z,1.65
2018-02-25T22:41:23.940Z,2.30
2018-02-25T22:44:02.506Z,1.37
2018-02-25T22:46:43.794Z,1.87
2018-02-25T22:49:23.471Z,2.70
2018-02-25T22:52:01.952Z,3.20
2018-02-25T22:54:40.468Z,1.60
2018-02-25T22:57:18.953Z,4.05
2018-02-25T22:59:58.475Z,2.78
2018-02-25T23:02:37.108Z,1.95
2018-02-25T23:05:15.720Z,3.83
2018-02-25T23:07:55.574Z,4.30
2018-02-25T23:10:34.000Z,11.05
2018-02-25T23:13:13.559Z,8.85
2018-02-25T23:18:37.936Z,1.30
2018-02-25T23:21:18.164Z,0.95
2018-02-25T23:23:57.045Z,4.85
2018-02-25T23:26:34.608Z,1.50
2018-02-25T23:29:16.209Z,2.95
2018-02-25T23:31:54.599Z,2.00
2018-02-25T23:34:34.272Z,2.47
2018-02-25T23:37:13.865Z,2.42
2018-02-25T23:39:52.295Z,2.37
2018-02-25T23:42:34.800Z,2.58
2018-02-25T23:45:14.308Z,2.15
2018-02-25T23:47:53.821Z,2.97
2018-02-25T23:50:36.229Z,2.28
2018-02-25T23:53:14.565Z,8.00
2018-02-25T23:55:52.973Z,4.40
2018-02-25T23:58:31.341Z,3.78
